• Join FlightAware (Why Join?)
  • Login
  • US Flag 
01:11PM EDT


 

Airport Tracker/Info


-or-


 

Live Flight TrackerFlight Track Log ✈ N244A ✈ 11-Jul-2013 ✈ KPWK - KRMN

Flight Track Log - Related Links

Times and Time Zones

All times are in EDT time to prevent confusion due to time zone crossing. See the N244A flight status page for this flight to view local times or setup timezone preferences in your user account.

Time Position Orientation Groundspeed Altitude Reporting Facility
EDT Latitude Longitude Course Direction KTS MPH feet Rate Location/Type
10:27AM 42.1394 -87.9111 32° Northeast 167 192 35,000  Level Chicago Center
10:28AM 42.1944 -87.8644 32° Northeast 248 285 3,200 -13,860 Descending Chicago Center
10:29AM 42.2531 -87.8056 37° Northeast 259 298 6,400 3,360 Climbing Chicago Center
10:30AM 42.2692 -87.7117 77° East 298 343 10,300 3,600 Climbing Chicago Center
10:31AM 42.1925 -87.6589 153° Southeast 329 379 13,900 2,580 Climbing Chicago Center
10:32AM 42.1158 -87.5469 133° Southeast 343 395 15,700 2,220 Climbing Chicago Center
10:33AM 42.0781 -87.4281 113° Southeast 345 397 18,500 2,280 Climbing Chicago Center
10:34AM 42.0297 -87.2992 117° Southeast 376 433 20,500 2,100 Climbing Chicago Center
10:35AM 41.9800 -87.1603 116° Southeast 404 465 22,900 1,980 Climbing Chicago Center
10:37AM 41.9447 -87.0067 107° East 428 493 24,600 1,440 Climbing Chicago Center
10:38AM 41.9494 -86.7958 88° East 469 540 25,900 1,560 Climbing Chicago Center
10:39AM 41.9494 -86.6369 90° East 486 559 27,900 1,980 Climbing Chicago Center
10:40AM 41.9522 -86.4586 89° East 478 550 30,000 1,620 Climbing Chicago Center
10:41AM 41.9533 -86.2389 90° East 489 563 31,300 1,140 Climbing Chicago Center
10:42AM 41.9231 -86.0542 102° East 506 582 32,400 1,380 Climbing Chicago Center
10:43AM 41.8856 -85.8731 105° East 504 580 34,200 1,200 Climbing Chicago Center
10:44AM 41.8519 -85.6939 104° East 495 570 35,000 360 Climbing Chicago Center
10:45AM 41.8153 -85.5075 105° East 509 586 35,000  Level Chicago Center
10:46AM 41.7758 -85.3136 105° East 524 603 35,000  Level Chicago Center
10:47AM 41.7356 -85.1242 106° East 524 603 35,000  Level Chicago Center
10:48AM 41.6967 -84.9325 105° East 533 613 35,000  Level Chicago Center
10:49AM 41.6619 -84.7047 101° East 527 606 35,000  Level Chicago Center
10:50AM 41.6181 -84.5183 107° East 528 608 35,000  Level Chicago Center
10:51AM 41.5472 -84.3533 120° Southeast 515 593 35,000  Level Chicago Center
10:52AM 41.4753 -84.1878 120° Southeast 515 593 35,000  Level Chicago Center
10:53AM 41.4072 -84.0189 118° Southeast 518 596 35,000  Level Chicago Center
10:54AM 41.3386 -83.8519 119° Southeast 516 594 35,000  Level Chicago Center
10:55AM 41.2547 -83.6525 119° Southeast 515 593 35,000  Level Chicago Center
10:56AM 41.1853 -83.4875 119° Southeast 513 590 35,000  Level Chicago Center
10:57AM 41.1178 -83.3303 120° Southeast 513 590 35,000  Level Indianapolis Center
10:58AM 41.0483 -83.1647 119° Southeast 512 589 35,000  Level Indianapolis Center
10:59AM 40.9758 -83.0000 120° Southeast 513 590 35,000  Level Indianapolis Center
11:00AM 40.8897 -82.8053 120° Southeast 518 596 35,000  Level Cleveland Center
11:01AM 40.8197 -82.6464 120° Southeast 518 596 35,000  Level Cleveland Center
11:02AM 40.7497 -82.4825 119° Southeast 518 596 35,000  Level Cleveland Center
11:03AM 40.6792 -82.3217 120° Southeast 512 589 35,000  Level Cleveland Center
11:04AM 40.6081 -82.1556 119° Southeast 511 588 35,000  Level Indianapolis Center
11:05AM 40.5364 -81.9919 120° Southeast 515 593 35,000  Level Indianapolis Center
11:06AM 40.4639 -81.8314 121° Southeast 511 588 35,000  Level Indianapolis Center
11:07AM 40.3919 -81.6683 120° Southeast 513 590 35,000  Level Indianapolis Center
11:09AM 40.3053 -81.4811 121° Southeast 513 590 35,000  Level Indianapolis Center
11:10AM 40.2328 -81.3181 120° Southeast 514 592 35,000  Level Indianapolis Center
11:11AM 40.1592 -81.1561 121° Southeast 515 593 35,000 -300 Level Indianapolis Center
11:12AM 40.0853 -80.9958 121° Southeast 514 592 34,500 -1,020 Descending Indianapolis Center
11:13AM 40.0103 -80.8300 121° Southeast 525 604 33,000 -780 Descending Indianapolis Center
11:14AM 39.9403 -80.6800 121° Southeast 522 601 33,000 -120 Level Indianapolis Center
11:15AM 39.8522 -80.4914 121° Southeast 510 587 32,800 -780 Descending Indianapolis Center
11:16AM 39.7769 -80.3308 121° Southeast 519 597 31,500 -840 Descending Indianapolis Center
11:17AM 39.6953 -80.1514 121° Southeast 520 598 31,000 -480 Descending Cleveland Center
11:19AM 39.5606 -79.8689 122° Southeast 515 593 30,100 -720 Descending Washington Center
11:20AM 39.4892 -79.7086 120° Southeast 515 593 29,000 -1,260 Descending Washington Center
11:21AM 39.4153 -79.5514 121° Southeast 515 593 27,700 -1,740 Descending Washington Center
11:22AM 39.3369 -79.3914 122° Southeast 520 598 25,600 -2,400 Descending Washington Center
11:23AM 39.2528 -79.2181 122° Southeast 520 598 22,900 -2,760 Descending Washington Center
11:24AM 39.1842 -79.0728 121° Southeast 496 571 20,200 -2,760 Descending Washington Center
11:25AM 39.1192 -78.9386 122° Southeast 471 542 17,500 -2,760 Descending Washington Center
11:26AM 39.0542 -78.8019 121° Southeast 456 525 14,700 -3,060 Descending Washington Center
11:27AM 38.9928 -78.6764 122° Southeast 435 501 11,500 -2,280 Descending Washington Center
11:28AM 38.9414 -78.5647 121° Southeast 411 473 10,200 -2,040 Descending Washington Center
11:29AM 38.8978 -78.4697 121° Southeast 346 398 7,500 -1,620 Descending Washington Center
11:30AM 38.8539 -78.3853 124° Southeast 308 354 7,000 -300 Descending Washington Center
11:31AM 38.8081 -78.2875 121° Southeast 308 354 7,000  Level Washington Center
11:32AM 38.7642 -78.2008 123° Southeast 308 354 7,000  Level Washington Center
11:33AM 38.7181 -78.1114 123° Southeast 308 354 7,000  Level Washington Center
11:34AM 38.6742 -78.0194 121° Southeast 308 354 7,000 -480 Level Washington Center
11:35AM 38.6300 -77.9331 123° Southeast 308 354 6,100 -1,200 Descending Washington Center
11:36AM 38.5858 -77.8492 124° Southeast 301 346 4,600 -1,080 Descending Washington Center
11:37AM 38.5478 -77.7658 120° Southeast 284 327 4,000 -540 Descending Washington Center
11:39AM 38.4500 -77.6167 130° Southeast 269 310 3,100 -480 Descending Potomac TRACON